sensor_id;sensor_type;location;lat;lon;timestamp;temperature;humidity
5588;DHT22;2816;49.778;9.986;2024-01-15T00:02:20;-3.10;99.90
5588;DHT22;2816;49.778;9.986;2024-01-15T00:04:49;-3.10;99.90
5588;DHT22;2816;49.778;9.986;2024-01-15T00:07:15;-3.10;99.90
5588;DHT22;2816;49.778;9.986;2024-01-15T00:09:42;-3.00;99.90
5588;DHT22;2816;49.778;9.986;2024-01-15T00:12:09;-3.00;99.90
5588;DHT22;2816;49.778;9.986;2024-01-15T00:14:36;-3.20;99.90
5588;DHT22;2816;49.778;9.986;2024-01-15T00:17:03;-3.30;99.90
5588;DHT22;2816;49.778;9.986;2024-01-15T00:19:30;-3.10;99.90
5588;DHT22;2816;49.778;9.986;2024-01-15T00:21:59;-3.20;99.90
5588;DHT22;2816;49.778;9.986;2024-01-15T00:24:26;-3.30;99.90
5588;DHT22;2816;49.778;9.986;2024-01-15T00:26:52;-3.20;99.90
5588;DHT22;2816;49.778;9.986;2024-01-15T00:29:21;-3.10;99.90
5588;DHT22;2816;49.778;9.986;2024-01-15T00:31:48;-2.90;99.90
5588;DHT22;2816;49.778;9.986;2024-01-15T00:34:15;-2.90;99.90
5588;DHT22;2816;49.778;9.986;2024-01-15T00:36:41;-2.90;99.90
5588;DHT22;2816;49.778;9.986;2024-01-15T00:39:10;-2.90;99.90
5588;DHT22;2816;49.778;9.986;2024-01-15T00:41:37;-3.00;99.90
5588;DHT22;2816;49.778;9.986;2024-01-15T00:44:04;-2.80;99.90
5588;DHT22;2816;49.778;9.986;2024-01-15T00:46:31;-2.90;99.90
5588;DHT22;2816;49.778;9.986;2024-01-15T00:48:58;-2.90;99.90
5588;DHT22;2816;49.778;9.986;2024-01-15T00:51:24;-2.90;99.90
5588;DHT22;2816;49.778;9.986;2024-01-15T00:53:51;-2.90;99.90
5588;DHT22;2816;49.778;9.986;2024-01-15T00:56:20;-2.90;99.90
5588;DHT22;2816;49.778;9.986;2024-01-15T00:58:46;-2.80;99.90
5588;DHT22;2816;49.778;9.986;2024-01-15T01:01:13;-2.90;99.90
5588;DHT22;2816;49.778;9.986;2024-01-15T01:03:40;-3.00;99.90
5588;DHT22;2816;49.778;9.986;2024-01-15T01:06:07;-2.80;99.90
5588;DHT22;2816;49.778;9.986;2024-01-15T01:08:34;-2.70;99.90
5588;DHT22;2816;49.778;9.986;2024-01-15T01:11:01;-2.80;99.90
5588;DHT22;2816;49.778;9.986;2024-01-15T01:13:29;-2.90;99.90
5588;DHT22;2816;49.778;9.986;2024-01-15T01:15:56;-2.80;99.90
5588;DHT22;2816;49.778;9.986;2024-01-15T01:18:23;-2.70;99.90
5588;DHT22;2816;49.778;9.986;2024-01-15T01:20:50;-2.70;99.90
5588;DHT22;2816;49.778;9.986;2024-01-15T01:23:17;-2.70;99.90
5588;DHT22;2816;49.778;9.986;2024-01-15T01:25:44;-2.70;99.90
5588;DHT22;2816;49.778;9.986;2024-01-15T01:28:11;-2.60;99.90
5588;DHT22;2816;49.778;9.986;2024-01-15T01:30:39;-2.70;99.90
5588;DHT22;2816;49.778;9.986;2024-01-15T01:33:06;-2.70;99.90
5588;DHT22;2816;49.778;9.986;2024-01-15T01:35:33;-2.70;99.90
5588;DHT22;2816;49.778;9.986;2024-01-15T01:38:00;-2.70;99.90
5588;DHT22;2816;49.778;9.986;2024-01-15T01:40:27;-2.80;99.90
5588;DHT22;2816;49.778;9.986;2024-01-15T01:42:54;-2.80;99.90
5588;DHT22;2816;49.778;9.986;2024-01-15T01:45:20;-2.90;99.90
5588;DHT22;2816;49.778;9.986;2024-01-15T01:47:49;-2.90;99.90
5588;DHT22;2816;49.778;9.986;2024-01-15T01:50:15;-2.90;99.90
5588;DHT22;2816;49.778;9.986;2024-01-15T01:52:42;-2.90;99.90
5588;DHT22;2816;49.778;9.986;2024-01-15T01:55:09;-2.90;99.90
5588;DHT22;2816;49.778;9.986;2024-01-15T01:57:37;-3.00;99.90
5588;DHT22;2816;49.778;9.986;2024-01-15T02:00:05;-3.00;99.90
5588;DHT22;2816;49.778;9.986;2024-01-15T02:02:32;-3.00;99.90
5588;DHT22;2816;49.778;9.986;2024-01-15T02:05:02;-2.90;99.90
5588;DHT22;2816;49.778;9.986;2024-01-15T02:07:30;-3.00;99.90
5588;DHT22;2816;49.778;9.986;2024-01-15T02:09:57;-2.90;99.90
5588;DHT22;2816;49.778;9.986;2024-01-15T02:12:24;-3.10;99.90
5588;DHT22;2816;49.778;9.986;2024-01-15T02:14:51;-2.90;99.90
5588;DHT22;2816;49.778;9.986;2024-01-15T02:17:18;-2.90;99.90
5588;DHT22;2816;49.778;9.986;2024-01-15T02:19:45;-3.00;99.90
5588;DHT22;2816;49.778;9.986;2024-01-15T02:22:13;-3.10;99.90
5588;DHT22;2816;49.778;9.986;2024-01-15T02:24:42;-3.00;99.90
5588;DHT22;2816;49.778;9.986;2024-01-15T02:27:09;-3.00;99.90
5588;DHT22;2816;49.778;9.986;2024-01-15T02:29:36;-3.00;99.90
5588;DHT22;2816;49.778;9.986;2024-01-15T02:32:04;-3.00;99.90
5588;DHT22;2816;49.778;9.986;2024-01-15T02:34:31;-3.00;99.90
5588;DHT22;2816;49.778;9.986;2024-01-15T02:36:58;-2.80;99.90
5588;DHT22;2816;49.778;9.986;2024-01-15T02:39:25;-2.90;99.90
5588;DHT22;2816;49.778;9.986;2024-01-15T02:41:54;-2.90;99.90
5588;DHT22;2816;49.778;9.986;2024-01-15T02:44:21;-2.70;99.90
5588;DHT22;2816;49.778;9.986;2024-01-15T02:46:48;-2.70;99.90
5588;DHT22;2816;49.778;9.986;2024-01-15T02:49:15;-2.70;99.90
5588;DHT22;2816;49.778;9.986;2024-01-15T02:51:42;-2.70;99.90
5588;DHT22;2816;49.778;9.986;2024-01-15T02:54:09;-2.70;99.90
5588;DHT22;2816;49.778;9.986;2024-01-15T02:56:36;-2.60;99.90
5588;DHT22;2816;49.778;9.986;2024-01-15T02:59:04;-2.50;99.90
5588;DHT22;2816;49.778;9.986;2024-01-15T03:01:31;-2.50;99.90
5588;DHT22;2816;49.778;9.986;2024-01-15T03:03:58;-2.60;99.90
5588;DHT22;2816;49.778;9.986;2024-01-15T03:06:25;-2.70;99.90
5588;DHT22;2816;49.778;9.986;2024-01-15T03:08:51;-2.60;99.90
5588;DHT22;2816;49.778;9.986;2024-01-15T03:11:18;-2.60;99.90
5588;DHT22;2816;49.778;9.986;2024-01-15T03:13:45;-2.60;99.90
5588;DHT22;2816;49.778;9.986;2024-01-15T03:16:14;-2.70;99.90
5588;DHT22;2816;49.778;9.986;2024-01-15T03:18:41;-2.70;99.90
5588;DHT22;2816;49.778;9.986;2024-01-15T03:21:08;-2.70;99.90
5588;DHT22;2816;49.778;9.986;2024-01-15T03:23:35;-2.70;99.90
5588;DHT22;2816;49.778;9.986;2024-01-15T03:26:02;-2.70;99.90
5588;DHT22;2816;49.778;9.986;2024-01-15T03:28:29;-2.70;99.90
5588;DHT22;2816;49.778;9.986;2024-01-15T03:30:56;-2.70;99.90
5588;DHT22;2816;49.778;9.986;2024-01-15T03:33:24;-2.60;99.90
5588;DHT22;2816;49.778;9.986;2024-01-15T03:35:51;-2.60;99.90
5588;DHT22;2816;49.778;9.986;2024-01-15T03:38:18;-2.70;99.90
5588;DHT22;2816;49.778;9.986;2024-01-15T03:40:45;-2.60;99.90
5588;DHT22;2816;49.778;9.986;2024-01-15T03:43:12;-2.60;99.90
5588;DHT22;2816;49.778;9.986;2024-01-15T03:45:39;-2.50;99.90
5588;DHT22;2816;49.778;9.986;2024-01-15T03:48:06;-2.40;99.90
5588;DHT22;2816;49.778;9.986;2024-01-15T03:50:34;-2.50;99.90
5588;DHT22;2816;49.778;9.986;2024-01-15T03:53:01;-2.50;99.90
5588;DHT22;2816;49.778;9.986;2024-01-15T03:55:28;-2.50;99.90
5588;DHT22;2816;49.778;9.986;2024-01-15T03:57:56;-2.50;99.90
5588;DHT22;2816;49.778;9.986;2024-01-15T04:00:23;-2.50;99.90
5588;DHT22;2816;49.778;9.986;2024-01-15T04:02:50;-2.40;99.90
5588;DHT22;2816;49.778;9.986;2024-01-15T04:05:17;-2.50;99.90
5588;DHT22;2816;49.778;9.986;2024-01-15T04:07:45;-2.40;99.90
5588;DHT22;2816;49.778;9.986;2024-01-15T04:10:12;-2.40;99.90
5588;DHT22;2816;49.778;9.986;2024-01-15T04:12:39;-2.40;99.90
5588;DHT22;2816;49.778;9.986;2024-01-15T04:15:06;-2.40;99.90
5588;DHT22;2816;49.778;9.986;2024-01-15T04:17:33;-2.30;99.90
5588;DHT22;2816;49.778;9.986;2024-01-15T04:20:00;-2.30;99.90
5588;DHT22;2816;49.778;9.986;2024-01-15T04:22:27;-2.40;99.90
5588;DHT22;2816;49.778;9.986;2024-01-15T04:24:55;-2.40;99.90
5588;DHT22;2816;49.778;9.986;2024-01-15T04:27:22;-2.30;99.90
5588;DHT22;2816;49.778;9.986;2024-01-15T04:29:49;-2.20;99.90
5588;DHT22;2816;49.778;9.986;2024-01-15T04:32:16;-2.20;99.90
5588;DHT22;2816;49.778;9.986;2024-01-15T04:34:43;-2.20;99.90
5588;DHT22;2816;49.778;9.986;2024-01-15T04:37:10;-2.20;99.90
5588;DHT22;2816;49.778;9.986;2024-01-15T04:39:37;-2.30;99.90
5588;DHT22;2816;49.778;9.986;2024-01-15T04:42:05;-2.30;99.90
5588;DHT22;2816;49.778;9.986;2024-01-15T04:44:32;-2.30;99.90
5588;DHT22;2816;49.778;9.986;2024-01-15T04:46:59;-2.40;99.90
5588;DHT22;2816;49.778;9.986;2024-01-15T04:49:26;-2.40;99.90
5588;DHT22;2816;49.778;9.986;2024-01-15T04:51:54;-2.30;99.90
5588;DHT22;2816;49.778;9.986;2024-01-15T04:54:21;-2.30;99.90
5588;DHT22;2816;49.778;9.986;2024-01-15T04:56:48;-2.30;99.90
5588;DHT22;2816;49.778;9.986;2024-01-15T04:59:16;-2.30;99.90
5588;DHT22;2816;49.778;9.986;2024-01-15T05:01:43;-2.40;99.90
5588;DHT22;2816;49.778;9.986;2024-01-15T05:04:10;-2.30;99.90
5588;DHT22;2816;49.778;9.986;2024-01-15T05:06:37;-2.40;99.90
5588;DHT22;2816;49.778;9.986;2024-01-15T05:09:04;-2.40;99.90
5588;DHT22;2816;49.778;9.986;2024-01-15T05:11:31;-2.40;99.90
5588;DHT22;2816;49.778;9.986;2024-01-15T05:13:58;-2.50;99.90
5588;DHT22;2816;49.778;9.986;2024-01-15T05:16:26;-2.50;99.90
5588;DHT22;2816;49.778;9.986;2024-01-15T05:18:53;-2.50;99.90
5588;DHT22;2816;49.778;9.986;2024-01-15T05:21:20;-2.50;99.90
5588;DHT22;2816;49.778;9.986;2024-01-15T05:23:47;-2.40;99.90
5588;DHT22;2816;49.778;9.986;2024-01-15T05:26:13;-2.40;99.90
5588;DHT22;2816;49.778;9.986;2024-01-15T05:28:41;-2.30;99.90
5588;DHT22;2816;49.778;9.986;2024-01-15T05:31:08;-2.30;99.90
5588;DHT22;2816;49.778;9.986;2024-01-15T05:33:37;-2.20;99.90
5588;DHT22;2816;49.778;9.986;2024-01-15T05:36:05;-2.20;99.90
5588;DHT22;2816;49.778;9.986;2024-01-15T05:38:31;-2.30;99.90
5588;DHT22;2816;49.778;9.986;2024-01-15T05:40:58;-2.20;99.90
5588;DHT22;2816;49.778;9.986;2024-01-15T05:43:25;-2.20;99.90
5588;DHT22;2816;49.778;9.986;2024-01-15T05:45:52;-2.10;99.90
5588;DHT22;2816;49.778;9.986;2024-01-15T05:48:18;-2.20;99.90
5588;DHT22;2816;49.778;9.986;2024-01-15T05:50:47;-2.20;99.90
5588;DHT22;2816;49.778;9.986;2024-01-15T05:53:14;-2.30;99.90
5588;DHT22;2816;49.778;9.986;2024-01-15T05:55:41;-2.20;99.90
5588;DHT22;2816;49.778;9.986;2024-01-15T05:58:08;-2.20;99.90
5588;DHT22;2816;49.778;9.986;2024-01-15T06:00:34;-2.10;99.90
5588;DHT22;2816;49.778;9.986;2024-01-15T06:03:04;-2.10;99.90
5588;DHT22;2816;49.778;9.986;2024-01-15T06:05:31;-2.20;99.90
5588;DHT22;2816;49.778;9.986;2024-01-15T06:07:59;-2.10;99.90
5588;DHT22;2816;49.778;9.986;2024-01-15T06:10:26;-2.10;99.90
5588;DHT22;2816;49.778;9.986;2024-01-15T06:12:53;-2.20;99.90
5588;DHT22;2816;49.778;9.986;2024-01-15T06:15:19;-2.10;99.90
5588;DHT22;2816;49.778;9.986;2024-01-15T06:17:46;-2.20;99.90
5588;DHT22;2816;49.778;9.986;2024-01-15T06:20:13;-2.30;99.90
5588;DHT22;2816;49.778;9.986;2024-01-15T06:22:40;-2.20;99.90
5588;DHT22;2816;49.778;9.986;2024-01-15T06:25:09;-2.30;99.90
5588;DHT22;2816;49.778;9.986;2024-01-15T06:27:36;-2.20;99.90
5588;DHT22;2816;49.778;9.986;2024-01-15T06:30:03;-2.10;99.90
5588;DHT22;2816;49.778;9.986;2024-01-15T06:32:30;-2.10;99.90
5588;DHT22;2816;49.778;9.986;2024-01-15T06:34:57;-2.10;99.90
5588;DHT22;2816;49.778;9.986;2024-01-15T06:37:24;-2.10;99.90
5588;DHT22;2816;49.778;9.986;2024-01-15T06:39:51;-2.00;99.90
5588;DHT22;2816;49.778;9.986;2024-01-15T06:42:19;-2.00;99.90
5588;DHT22;2816;49.778;9.986;2024-01-15T06:44:47;-2.00;99.90
5588;DHT22;2816;49.778;9.986;2024-01-15T06:47:14;-2.10;99.90
5588;DHT22;2816;49.778;9.986;2024-01-15T06:49:42;-2.10;99.90
5588;DHT22;2816;49.778;9.986;2024-01-15T06:52:09;-2.10;99.90
5588;DHT22;2816;49.778;9.986;2024-01-15T06:54:37;-2.00;99.90
5588;DHT22;2816;49.778;9.986;2024-01-15T06:57:04;-2.10;99.90
5588;DHT22;2816;49.778;9.986;2024-01-15T06:59:33;-2.10;99.90
5588;DHT22;2816;49.778;9.986;2024-01-15T07:02:00;-2.10;99.90
5588;DHT22;2816;49.778;9.986;2024-01-15T07:04:28;-2.10;99.90
5588;DHT22;2816;49.778;9.986;2024-01-15T07:06:55;-2.10;99.90
5588;DHT22;2816;49.778;9.986;2024-01-15T07:09:22;-2.00;99.90
5588;DHT22;2816;49.778;9.986;2024-01-15T07:11:48;-2.00;99.90
5588;DHT22;2816;49.778;9.986;2024-01-15T07:14:16;-2.10;99.90
5588;DHT22;2816;49.778;9.986;2024-01-15T07:16:44;-2.10;99.90
5588;DHT22;2816;49.778;9.986;2024-01-15T07:19:11;-2.10;99.90
5588;DHT22;2816;49.778;9.986;2024-01-15T07:21:38;-2.20;99.90
5588;DHT22;2816;49.778;9.986;2024-01-15T07:24:08;-2.20;99.90
5588;DHT22;2816;49.778;9.986;2024-01-15T07:26:34;-2.10;99.90
5588;DHT22;2816;49.778;9.986;2024-01-15T07:29:01;-2.00;99.90
5588;DHT22;2816;49.778;9.986;2024-01-15T07:31:28;-2.10;99.90
5588;DHT22;2816;49.778;9.986;2024-01-15T07:33:57;-2.10;99.90
5588;DHT22;2816;49.778;9.986;2024-01-15T07:36:24;-2.10;99.90
5588;DHT22;2816;49.778;9.986;2024-01-15T07:38:51;-2.10;99.90
5588;DHT22;2816;49.778;9.986;2024-01-15T07:41:17;-2.10;99.90
5588;DHT22;2816;49.778;9.986;2024-01-15T07:43:44;-2.10;99.90
5588;DHT22;2816;49.778;9.986;2024-01-15T07:46:11;-2.20;99.90
5588;DHT22;2816;49.778;9.986;2024-01-15T07:48:38;-2.20;99.90
5588;DHT22;2816;49.778;9.986;2024-01-15T07:51:06;-2.20;99.90
5588;DHT22;2816;49.778;9.986;2024-01-15T07:53:33;-2.10;99.90
5588;DHT22;2816;49.778;9.986;2024-01-15T07:56:00;-2.10;99.90
5588;DHT22;2816;49.778;9.986;2024-01-15T07:58:27;-2.20;99.90
5588;DHT22;2816;49.778;9.986;2024-01-15T08:00:54;-2.10;99.90
5588;DHT22;2816;49.778;9.986;2024-01-15T08:03:21;-2.20;99.90
5588;DHT22;2816;49.778;9.986;2024-01-15T08:05:47;-2.30;99.90
5588;DHT22;2816;49.778;9.986;2024-01-15T08:08:19;-2.10;99.90
5588;DHT22;2816;49.778;9.986;2024-01-15T08:10:48;-2.10;99.90
5588;DHT22;2816;49.778;9.986;2024-01-15T08:13:15;-2.10;99.90
5588;DHT22;2816;49.778;9.986;2024-01-15T08:15:42;-2.10;99.90
5588;DHT22;2816;49.778;9.986;2024-01-15T08:18:09;-2.00;99.90
5588;DHT22;2816;49.778;9.986;2024-01-15T08:20:36;-2.10;99.90
5588;DHT22;2816;49.778;9.986;2024-01-15T08:23:03;-2.10;99.90
5588;DHT22;2816;49.778;9.986;2024-01-15T08:25:31;-2.10;99.90
5588;DHT22;2816;49.778;9.986;2024-01-15T08:27:58;-2.00;99.90
5588;DHT22;2816;49.778;9.986;2024-01-15T08:30:25;-2.00;99.90
5588;DHT22;2816;49.778;9.986;2024-01-15T08:32:53;-1.90;99.90
5588;DHT22;2816;49.778;9.986;2024-01-15T08:35:20;-1.90;99.90
5588;DHT22;2816;49.778;9.986;2024-01-15T08:37:48;-2.00;99.90
5588;DHT22;2816;49.778;9.986;2024-01-15T08:40:15;-2.00;99.90
5588;DHT22;2816;49.778;9.986;2024-01-15T08:42:43;-2.00;99.90
5588;DHT22;2816;49.778;9.986;2024-01-15T08:45:11;-2.00;99.90
5588;DHT22;2816;49.778;9.986;2024-01-15T08:47:38;-2.00;99.90
5588;DHT22;2816;49.778;9.986;2024-01-15T08:50:06;-1.90;99.90
5588;DHT22;2816;49.778;9.986;2024-01-15T08:52:35;-1.90;99.90
5588;DHT22;2816;49.778;9.986;2024-01-15T08:55:03;-1.90;99.90
5588;DHT22;2816;49.778;9.986;2024-01-15T08:57:32;-1.90;99.90
5588;DHT22;2816;49.778;9.986;2024-01-15T09:00:00;-1.90;99.90
5588;DHT22;2816;49.778;9.986;2024-01-15T09:02:28;-1.90;99.90
5588;DHT22;2816;49.778;9.986;2024-01-15T09:04:54;-1.80;99.90
5588;DHT22;2816;49.778;9.986;2024-01-15T09:07:21;-1.80;99.90
5588;DHT22;2816;49.778;9.986;2024-01-15T09:09:50;-1.80;99.90
5588;DHT22;2816;49.778;9.986;2024-01-15T09:12:17;-1.80;99.90
5588;DHT22;2816;49.778;9.986;2024-01-15T09:14:44;-1.80;99.90
5588;DHT22;2816;49.778;9.986;2024-01-15T09:17:12;-1.70;99.90
5588;DHT22;2816;49.778;9.986;2024-01-15T09:19:39;-1.70;99.90
5588;DHT22;2816;49.778;9.986;2024-01-15T09:22:07;-1.40;99.90
5588;DHT22;2816;49.778;9.986;2024-01-15T09:24:34;-1.00;99.90
5588;DHT22;2816;49.778;9.986;2024-01-15T09:27:01;-0.70;99.90
5588;DHT22;2816;49.778;9.986;2024-01-15T09:29:28;-0.30;99.90
5588;DHT22;2816;49.778;9.986;2024-01-15T09:31:55;-0.50;99.90
5588;DHT22;2816;49.778;9.986;2024-01-15T09:34:23;-0.90;99.90
5588;DHT22;2816;49.778;9.986;2024-01-15T09:36:50;-1.10;99.90
5588;DHT22;2816;49.778;9.986;2024-01-15T09:39:17;-1.30;99.90
5588;DHT22;2816;49.778;9.986;2024-01-15T09:41:44;-1.30;99.90
5588;DHT22;2816;49.778;9.986;2024-01-15T09:44:12;-1.30;99.90
5588;DHT22;2816;49.778;9.986;2024-01-15T09:46:39;-1.30;99.90
5588;DHT22;2816;49.778;9.986;2024-01-15T09:49:07;-1.40;99.90
5588;DHT22;2816;49.778;9.986;2024-01-15T09:51:35;-1.40;99.90
5588;DHT22;2816;49.778;9.986;2024-01-15T09:54:03;-1.40;99.90
5588;DHT22;2816;49.778;9.986;2024-01-15T09:56:30;-1.40;99.90
5588;DHT22;2816;49.778;9.986;2024-01-15T09:58:57;-1.40;99.90
5588;DHT22;2816;49.778;9.986;2024-01-15T10:01:25;-1.30;99.90
5588;DHT22;2816;49.778;9.986;2024-01-15T10:03:51;-1.30;99.90
5588;DHT22;2816;49.778;9.986;2024-01-15T10:06:20;-1.30;99.90
5588;DHT22;2816;49.778;9.986;2024-01-15T10:08:50;-1.30;99.90
5588;DHT22;2816;49.778;9.986;2024-01-15T10:11:17;-1.30;99.90
5588;DHT22;2816;49.778;9.986;2024-01-15T10:13:44;-1.20;99.90
5588;DHT22;2816;49.778;9.986;2024-01-15T10:16:12;-1.30;99.90
5588;DHT22;2816;49.778;9.986;2024-01-15T10:18:39;-1.30;99.90
5588;DHT22;2816;49.778;9.986;2024-01-15T10:21:06;-1.20;99.90
5588;DHT22;2816;49.778;9.986;2024-01-15T10:23:34;-1.30;99.90
5588;DHT22;2816;49.778;9.986;2024-01-15T10:26:03;-1.30;99.90
5588;DHT22;2816;49.778;9.986;2024-01-15T10:28:30;-1.20;99.90
5588;DHT22;2816;49.778;9.986;2024-01-15T10:30:58;-1.20;99.90
5588;DHT22;2816;49.778;9.986;2024-01-15T10:33:26;-1.20;99.90
5588;DHT22;2816;49.778;9.986;2024-01-15T10:35:53;-1.10;99.90
5588;DHT22;2816;49.778;9.986;2024-01-15T10:38:21;-1.10;99.90
5588;DHT22;2816;49.778;9.986;2024-01-15T10:40:50;-1.10;99.90
5588;DHT22;2816;49.778;9.986;2024-01-15T10:43:19;-1.00;99.90
5588;DHT22;2816;49.778;9.986;2024-01-15T10:45:46;-1.00;99.90
5588;DHT22;2816;49.778;9.986;2024-01-15T10:48:13;-1.00;99.90
5588;DHT22;2816;49.778;9.986;2024-01-15T10:50:40;-0.90;99.90
5588;DHT22;2816;49.778;9.986;2024-01-15T10:53:08;-0.90;99.90
5588;DHT22;2816;49.778;9.986;2024-01-15T10:55:38;-0.90;99.90
5588;DHT22;2816;49.778;9.986;2024-01-15T10:58:05;-0.90;99.90
5588;DHT22;2816;49.778;9.986;2024-01-15T11:00:35;-0.90;99.90
5588;DHT22;2816;49.778;9.986;2024-01-15T11:03:05;-0.90;99.90
5588;DHT22;2816;49.778;9.986;2024-01-15T11:05:33;-0.90;99.90
5588;DHT22;2816;49.778;9.986;2024-01-15T11:08:01;-0.90;99.90
5588;DHT22;2816;49.778;9.986;2024-01-15T11:10:41;-0.90;99.90
5588;DHT22;2816;49.778;9.986;2024-01-15T11:13:10;-0.80;99.90
5588;DHT22;2816;49.778;9.986;2024-01-15T11:15:56;-0.90;99.90
5588;DHT22;2816;49.778;9.986;2024-01-15T11:18:23;-0.80;99.90
5588;DHT22;2816;49.778;9.986;2024-01-15T11:21:24;-0.80;99.90
5588;DHT22;2816;49.778;9.986;2024-01-15T11:23:54;-0.70;99.90
5588;DHT22;2816;49.778;9.986;2024-01-15T11:26:35;-0.70;99.90
5588;DHT22;2816;49.778;9.986;2024-01-15T11:29:03;-0.70;99.90
5588;DHT22;2816;49.778;9.986;2024-01-15T11:32:06;-0.60;99.90
5588;DHT22;2816;49.778;9.986;2024-01-15T11:34:53;-0.60;99.90
5588;DHT22;2816;49.778;9.986;2024-01-15T11:37:21;-0.60;99.90
5588;DHT22;2816;49.778;9.986;2024-01-15T11:39:51;-0.60;99.90
5588;DHT22;2816;49.778;9.986;2024-01-15T11:42:20;-0.70;99.90
5588;DHT22;2816;49.778;9.986;2024-01-15T11:44:47;-0.70;99.90
5588;DHT22;2816;49.778;9.986;2024-01-15T11:47:16;-0.70;99.90
5588;DHT22;2816;49.778;9.986;2024-01-15T11:50:01;-0.70;99.90
5588;DHT22;2816;49.778;9.986;2024-01-15T11:52:32;-0.70;99.90
5588;DHT22;2816;49.778;9.986;2024-01-15T11:55:11;-0.70;99.90
5588;DHT22;2816;49.778;9.986;2024-01-15T11:57:46;-0.70;99.90
5588;DHT22;2816;49.778;9.986;2024-01-15T12:00:13;-0.70;99.90
5588;DHT22;2816;49.778;9.986;2024-01-15T12:02:44;-0.70;99.90
5588;DHT22;2816;49.778;9.986;2024-01-15T12:05:12;-0.70;99.90
5588;DHT22;2816;49.778;9.986;2024-01-15T12:07:39;-0.60;99.90
5588;DHT22;2816;49.778;9.986;2024-01-15T12:10:09;-0.60;99.90
5588;DHT22;2816;49.778;9.986;2024-01-15T12:12:57;-0.60;99.90
5588;DHT22;2816;49.778;9.986;2024-01-15T12:15:24;-0.60;99.90
5588;DHT22;2816;49.778;9.986;2024-01-15T12:17:54;-0.60;99.90
5588;DHT22;2816;49.778;9.986;2024-01-15T12:20:21;-0.60;99.90
5588;DHT22;2816;49.778;9.986;2024-01-15T12:22:48;-0.50;99.90
5588;DHT22;2816;49.778;9.986;2024-01-15T12:25:15;-0.60;99.90
5588;DHT22;2816;49.778;9.986;2024-01-15T12:27:41;-0.60;99.90
5588;DHT22;2816;49.778;9.986;2024-01-15T12:30:11;-0.60;99.90
5588;DHT22;2816;49.778;9.986;2024-01-15T12:32:39;-0.60;99.90
5588;DHT22;2816;49.778;9.986;2024-01-15T12:35:09;-0.50;99.90
5588;DHT22;2816;49.778;9.986;2024-01-15T12:37:36;-0.60;99.90
5588;DHT22;2816;49.778;9.986;2024-01-15T12:40:04;-0.60;99.90
5588;DHT22;2816;49.778;9.986;2024-01-15T12:42:32;-0.50;99.90
5588;DHT22;2816;49.778;9.986;2024-01-15T12:45:00;-0.60;99.90
5588;DHT22;2816;49.778;9.986;2024-01-15T12:47:27;-0.50;99.90
5588;DHT22;2816;49.778;9.986;2024-01-15T12:49:54;-0.60;99.90
5588;DHT22;2816;49.778;9.986;2024-01-15T12:52:22;-0.50;99.90
5588;DHT22;2816;49.778;9.986;2024-01-15T12:54:49;-0.50;99.90
5588;DHT22;2816;49.778;9.986;2024-01-15T12:57:17;-0.50;99.90
5588;DHT22;2816;49.778;9.986;2024-01-15T12:59:44;-0.50;99.90
5588;DHT22;2816;49.778;9.986;2024-01-15T13:02:11;-0.40;99.90
5588;DHT22;2816;49.778;9.986;2024-01-15T13:04:38;-0.40;99.90
5588;DHT22;2816;49.778;9.986;2024-01-15T13:07:06;-0.30;99.90
5588;DHT22;2816;49.778;9.986;2024-01-15T13:09:35;-0.30;99.90
5588;DHT22;2816;49.778;9.986;2024-01-15T13:12:02;-0.20;99.90
5588;DHT22;2816;49.778;9.986;2024-01-15T13:14:29;-0.20;99.90
5588;DHT22;2816;49.778;9.986;2024-01-15T13:16:58;-0.20;99.90
5588;DHT22;2816;49.778;9.986;2024-01-15T13:19:25;-0.20;99.90
5588;DHT22;2816;49.778;9.986;2024-01-15T13:21:53;-0.20;99.90
5588;DHT22;2816;49.778;9.986;2024-01-15T13:24:21;-0.30;99.90
5588;DHT22;2816;49.778;9.986;2024-01-15T13:26:49;-0.20;99.90
5588;DHT22;2816;49.778;9.986;2024-01-15T13:29:16;-0.30;99.90
5588;DHT22;2816;49.778;9.986;2024-01-15T13:31:43;-0.30;99.90
5588;DHT22;2816;49.778;9.986;2024-01-15T13:34:12;-0.30;99.90
5588;DHT22;2816;49.778;9.986;2024-01-15T13:36:39;-0.20;99.90
5588;DHT22;2816;49.778;9.986;2024-01-15T13:39:06;-0.20;99.90
5588;DHT22;2816;49.778;9.986;2024-01-15T13:41:35;-0.30;99.90
5588;DHT22;2816;49.778;9.986;2024-01-15T13:44:03;-0.20;99.90
5588;DHT22;2816;49.778;9.986;2024-01-15T13:46:30;-0.30;99.90
5588;DHT22;2816;49.778;9.986;2024-01-15T13:48:57;-0.30;99.90
5588;DHT22;2816;49.778;9.986;2024-01-15T13:51:24;-0.30;99.90
5588;DHT22;2816;49.778;9.986;2024-01-15T13:53:51;-0.20;99.90
5588;DHT22;2816;49.778;9.986;2024-01-15T13:56:19;-0.20;99.90
5588;DHT22;2816;49.778;9.986;2024-01-15T13:58:46;-0.20;99.90
5588;DHT22;2816;49.778;9.986;2024-01-15T14:01:16;-0.20;99.90
5588;DHT22;2816;49.778;9.986;2024-01-15T14:03:44;-0.20;99.90
5588;DHT22;2816;49.778;9.986;2024-01-15T14:06:10;-0.20;99.90
5588;DHT22;2816;49.778;9.986;2024-01-15T14:08:37;-0.30;99.90
5588;DHT22;2816;49.778;9.986;2024-01-15T14:11:05;-0.40;99.90
5588;DHT22;2816;49.778;9.986;2024-01-15T14:13:32;-0.30;99.90
5588;DHT22;2816;49.778;9.986;2024-01-15T14:15:59;-0.40;99.90
5588;DHT22;2816;49.778;9.986;2024-01-15T14:18:28;-0.40;99.90
5588;DHT22;2816;49.778;9.986;2024-01-15T14:20:55;-0.40;99.90
5588;DHT22;2816;49.778;9.986;2024-01-15T14:23:22;-0.40;99.90
5588;DHT22;2816;49.778;9.986;2024-01-15T14:25:49;-0.40;99.90
5588;DHT22;2816;49.778;9.986;2024-01-15T14:28:16;-0.40;99.90
5588;DHT22;2816;49.778;9.986;2024-01-15T14:30:42;-0.40;99.90
5588;DHT22;2816;49.778;9.986;2024-01-15T14:33:09;-0.40;99.90
5588;DHT22;2816;49.778;9.986;2024-01-15T14:35:38;-0.40;99.90
5588;DHT22;2816;49.778;9.986;2024-01-15T14:38:04;-0.50;99.90
5588;DHT22;2816;49.778;9.986;2024-01-15T14:40:33;-0.50;99.90
5588;DHT22;2816;49.778;9.986;2024-01-15T14:43:00;-0.50;99.90
5588;DHT22;2816;49.778;9.986;2024-01-15T14:45:27;-0.50;99.90
5588;DHT22;2816;49.778;9.986;2024-01-15T14:47:55;-0.50;99.90
5588;DHT22;2816;49.778;9.986;2024-01-15T14:50:24;-0.50;99.90
5588;DHT22;2816;49.778;9.986;2024-01-15T14:52:52;-0.50;99.90
5588;DHT22;2816;49.778;9.986;2024-01-15T14:55:19;-0.50;99.90
5588;DHT22;2816;49.778;9.986;2024-01-15T14:57:48;-0.50;99.90
5588;DHT22;2816;49.778;9.986;2024-01-15T15:00:16;-0.40;99.90
5588;DHT22;2816;49.778;9.986;2024-01-15T15:02:43;-0.40;99.90
5588;DHT22;2816;49.778;9.986;2024-01-15T15:05:10;-0.40;99.90
5588;DHT22;2816;49.778;9.986;2024-01-15T15:07:38;-0.40;99.90
5588;DHT22;2816;49.778;9.986;2024-01-15T15:10:08;-0.40;99.90
5588;DHT22;2816;49.778;9.986;2024-01-15T15:12:36;-0.40;99.90
5588;DHT22;2816;49.778;9.986;2024-01-15T15:15:04;-0.40;99.90
5588;DHT22;2816;49.778;9.986;2024-01-15T15:17:32;-0.40;99.90
5588;DHT22;2816;49.778;9.986;2024-01-15T15:20:00;-0.30;99.90
5588;DHT22;2816;49.778;9.986;2024-01-15T15:22:28;-0.40;99.90
5588;DHT22;2816;49.778;9.986;2024-01-15T15:24:55;-0.30;99.90
5588;DHT22;2816;49.778;9.986;2024-01-15T15:27:23;-0.30;99.90
5588;DHT22;2816;49.778;9.986;2024-01-15T15:29:50;-0.30;99.90
5588;DHT22;2816;49.778;9.986;2024-01-15T15:32:17;-0.30;99.90
5588;DHT22;2816;49.778;9.986;2024-01-15T15:34:44;-0.30;99.90
5588;DHT22;2816;49.778;9.986;2024-01-15T15:37:11;-0.20;99.90
5588;DHT22;2816;49.778;9.986;2024-01-15T15:39:42;-0.30;99.90
5588;DHT22;2816;49.778;9.986;2024-01-15T15:42:09;-0.20;99.90
5588;DHT22;2816;49.778;9.986;2024-01-15T15:44:37;-0.20;99.90
5588;DHT22;2816;49.778;9.986;2024-01-15T15:47:09;-0.20;99.90
5588;DHT22;2816;49.778;9.986;2024-01-15T15:49:35;-0.20;99.90
5588;DHT22;2816;49.778;9.986;2024-01-15T15:52:03;-0.20;99.90
5588;DHT22;2816;49.778;9.986;2024-01-15T15:54:30;-0.20;99.90
5588;DHT22;2816;49.778;9.986;2024-01-15T15:56:56;-0.20;99.90
5588;DHT22;2816;49.778;9.986;2024-01-15T15:59:23;-0.20;99.90
5588;DHT22;2816;49.778;9.986;2024-01-15T16:01:52;-0.20;99.90
5588;DHT22;2816;49.778;9.986;2024-01-15T16:04:21;-0.20;99.90
5588;DHT22;2816;49.778;9.986;2024-01-15T16:06:48;-0.20;99.90